Etusivu
METAR-TAF:

METAR-TAF

Lentoasemat :

Sanikiluaqin lentoasema

Sanikiluaq, Nunavut, Kanada

Leveyspiiri: 56-32N, Pituuspiiri: 079-15W, korkeus merenpinnasta: 32 m

Tämänhetkinen sää

Tämä raportti tehtiin 1 tunti ja 13 minuuttia sitten, kello 15.00 UTC
Tuuli 10 kn pohjoisesta
Lämpötila -24°C
Kosteus 83%
Ilmanpaine 1028 hPa
Näkyvyys: 24.1 km
Muutamia pilviä 3000 ft:n korkeudessa

METAR: CYSK 251500Z 36010KT 15SM FEW030 M24/M26 A3035 RMK SC2 SLP283

Aika: 11:13 (16:13 UTC)


TAF: puuttuu

Säähavainnot ja -ennusteet yli 4000 lentoasemalta (METAR- ja TAF-raportit).

Käytössä olevat sääasemat on merkitty karttaan keltaisilla ja punaisilla pisteillä.

Aseta hiiri pisteen päälle nähdäksesi sääaseman nimen.

Klikkaa sitten nähdäksesi säähavainnot ja -ennusteet.

Kartan vaihtaminen: klikkaa mustalla rastilla varustettuja vihreitä pisteitä, niin voit zoomata sisään; viivalla varustettua vihreää pistettä, niin voit zoomata ulos tai vihreitä nuolia, niin pääset viereisille kartoille.


METAR-TAF: